Ever Diamond — 3FQS8 — position and weather

sailwx.info

Track history (hours):
 
Tides and Currents Weather Stations Pressure Air Temp Water Temp Dewpoint Dewpoint Depression Visibility Wind Speed Wind Dir Waves Ship Positions

Ever Diamond

Last reported at 2017-Apr-11 05:58 UTC. Time now 2017-Apr-25 12:32 UTC.
Position N 01°55' E 102°19'.
Warning: this ship's position is 14 days out of date.

Type: Ship (hazmat cat D). MMSI: 354893000.

Date/timePositionNaut miles runAvg speedWind from/ knotsBaromVisibWave heightAir tempDewpointWater temp
2017-Apr-11 05:58N 01°55' E 102°19'715.0
2017-Apr-11 05:30N 01°52' E 102°25'714.7
2017-Apr-11 05:00N 01°49' E 102°32'1614.0
2017-Apr-11 03:50N 01°41' E 102°46'4213.0
2017-Apr-11 00:37N 01°17' E 103°21'214.0
2017-Apr-11 00:30N 01°16' E 103°22'714.6
2017-Apr-11 00:00N 01°13' E 103°28'715.0
2017-Apr-10 23:30N 01°12' E 103°36'510.5
2017-Apr-10 23:00N 01°13' E 103°41'510.6
2017-Apr-10 22:30N 01°17' E 103°45'1 1.6
2017-Apr-10 22:00N 01°17' E 103°45'0 0.2
2017-Apr-10 21:29N 01°17' E 103°45'0 0.0
2017-Apr-10 20:59N 01°17' E 103°45'0 0.1
2017-Apr-10 20:29N 01°17' E 103°45'0 0.3
2017-Apr-10 19:59N 01°17' E 103°45'0 0.3
2017-Apr-10 19:29N 01°17' E 103°45'0 0.0
2017-Apr-10 18:59N 01°17' E 103°45'0 0.2
2017-Apr-10 18:29N 01°17' E 103°45'0 0.2
2017-Apr-10 17:59N 01°17' E 103°45'0 0.1
2017-Apr-10 17:30N 01°17' E 103°45'0 0.2
2017-Apr-10 17:00N 01°17' E 103°45'0 0.1
2017-Apr-10 16:30N 01°17' E 103°45'0 0.1
2017-Apr-10 16:00N 01°17' E 103°45'0 0.1
2017-Apr-10 15:30N 01°17' E 103°45'0 0.1
2017-Apr-10 15:00N 01°17' E 103°45'0 0.2
2017-Apr-10 13:57N 01°17' E 103°45'0 0.4
2017-Apr-10 13:30N 01°17' E 103°45'0 0.1
2017-Apr-10 13:00N 01°17' E 103°45'0 0.0
2017-Apr-10 12:30N 01°17' E 103°45'0 0.1
2017-Apr-10 12:00N 01°17' E 103°45'0 0.1
2017-Apr-10 11:30N 01°17' E 103°45'0 0.1
2017-Apr-10 11:00N 01°17' E 103°45'0 0.0
2017-Apr-10 10:31N 01°17' E 103°45'1 1.5
2017-Apr-10 10:01N 01°17' E 103°45'5 9.1
2017-Apr-10 09:30N 01°13' E 103°47'611.3
2017-Apr-10 09:01N 01°13' E 103°53'4 7.0
2017-Apr-10 08:30N 01°15' E 103°56'611.5
2017-Apr-10 08:01N 01°16' E 104°02'  
2017-Apr-05 09:54N 01°15' E 104°08'717.9
2017-Apr-05 09:30N 01°14' E 104°01'816.0
2017-Apr-05 09:00N 01°12' E 103°53'4 8.3
2017-Apr-05 08:31N 01°12' E 103°49'4 8.6
2017-Apr-05 08:00N 01°15' E 103°46'2 4.1
2017-Apr-05 07:31N 01°17' E 103°46'0 0.3
2017-Apr-05 06:59N 01°17' E 103°46'0 0.2
2017-Apr-05 06:29N 01°17' E 103°46'0 0.0
2017-Apr-05 06:00N 01°17' E 103°46'0 0.1
2017-Apr-05 05:27N 01°17' E 103°46'0 0.2
2017-Apr-05 04:57N 01°17' E 103°46'0 0.3
2017-Apr-05 04:30N 01°17' E 103°46'0 0.3
2017-Apr-05 04:00N 01°17' E 103°46'0 0.0
2017-Apr-05 03:30N 01°17' E 103°46'0 0.1
2017-Apr-05 02:57N 01°17' E 103°46'0 0.2
2017-Apr-05 02:30N 01°17' E 103°46'0 0.1
2017-Apr-05 02:00N 01°17' E 103°46'0 0.2
2017-Apr-05 01:30N 01°17' E 103°46'0 0.1
2017-Apr-05 01:00N 01°17' E 103°46'0 0.2
2017-Apr-05 00:30N 01°17' E 103°46'0 0.1
2017-Apr-05 00:00N 01°17' E 103°46'0 0.1
2017-Apr-04 23:30N 01°17' E 103°46'0 0.5
2017-Apr-04 23:00N 01°17' E 103°46'0 0.4
2017-Apr-04 22:27N 01°17' E 103°46'0 0.1
2017-Apr-04 21:57N 01°17' E 103°46'0 0.0
2017-Apr-04 21:30N 01°17' E 103°46'0 0.0
2017-Apr-04 20:57N 01°17' E 103°46'0 0.0
2017-Apr-04 20:30N 01°17' E 103°46'0 0.0
2017-Apr-04 19:54N 01°17' E 103°46'0 0.0
2017-Apr-04 19:30N 01°17' E 103°46'0 0.2
2017-Apr-04 19:00N 01°17' E 103°46'0 0.1
2017-Apr-04 18:18N 01°17' E 103°46'0 0.1
2017-Apr-04 17:57N 01°17' E 103°46'0 0.0
2017-Apr-04 17:30N 01°17' E 103°46'0 0.5
2017-Apr-04 17:00N 01°17' E 103°46'1 2.2
2017-Apr-04 16:30N 01°17' E 103°45'2 4.2
2017-Apr-04 16:00N 01°15' E 103°46'611.7
2017-Apr-04 15:30N 01°13' E 103°40'4 8.9
2017-Apr-04 15:00N 01°13' E 103°36'3 6.2
2017-Apr-04 14:30N 01°11' E 103°33'1110.9
2017-Apr-04 13:29N 01°14' E 103°22'714.6
2017-Apr-04 13:00N 01°18' E 103°17'3514.9
2017-Apr-04 10:41N 01°38' E 102°48'1515.1
2017-Apr-04 09:41N 01°44' E 102°35'415.2
2017-Apr-04 09:26N 01°46' E 102°32'615.0
2017-Apr-04 09:00N 01°48' E 102°26'1515.0
2017-Apr-04 08:02N 01°55' E 102°12'014.8
2017-Apr-04 08:00N 01°55' E 102°12'  
Track history (hours):
 
Tides and Currents Weather Stations Pressure Air Temp Water Temp Dewpoint Dewpoint Depression Visibility Wind Speed Wind Dir Waves Ship Positions

Ever Diamond

Last reported at 2017-Apr-11 05:58 UTC. Time now 2017-Apr-25 12:32 UTC.
Position N 01°55' E 102°19'.
Warning: this ship's position is 14 days out of date.

Type: Ship (hazmat cat D). MMSI: 354893000.

Date/timePositionNaut miles runAvg speedWind from/ knotsBaromVisibWave heightAir tempDewpointWater temp
2017-Apr-11 05:58N 01°55' E 102°19'715.0
2017-Apr-11 05:30N 01°52' E 102°25'714.7
2017-Apr-11 05:00N 01°49' E 102°32'1614.0
2017-Apr-11 03:50N 01°41' E 102°46'4213.0
2017-Apr-11 00:37N 01°17' E 103°21'214.0
2017-Apr-11 00:30N 01°16' E 103°22'714.6
2017-Apr-11 00:00N 01°13' E 103°28'715.0
2017-Apr-10 23:30N 01°12' E 103°36'510.5
2017-Apr-10 23:00N 01°13' E 103°41'510.6
2017-Apr-10 22:30N 01°17' E 103°45'1 1.6
2017-Apr-10 22:00N 01°17' E 103°45'0 0.2
2017-Apr-10 21:29N 01°17' E 103°45'0 0.0
2017-Apr-10 20:59N 01°17' E 103°45'0 0.1
2017-Apr-10 20:29N 01°17' E 103°45'0 0.3
2017-Apr-10 19:59N 01°17' E 103°45'0 0.3
2017-Apr-10 19:29N 01°17' E 103°45'0 0.0
2017-Apr-10 18:59N 01°17' E 103°45'0 0.2
2017-Apr-10 18:29N 01°17' E 103°45'0 0.2
2017-Apr-10 17:59N 01°17' E 103°45'0 0.1
2017-Apr-10 17:30N 01°17' E 103°45'0 0.2
2017-Apr-10 17:00N 01°17' E 103°45'0 0.1
2017-Apr-10 16:30N 01°17' E 103°45'0 0.1
2017-Apr-10 16:00N 01°17' E 103°45'0 0.1
2017-Apr-10 15:30N 01°17' E 103°45'0 0.1
2017-Apr-10 15:00N 01°17' E 103°45'0 0.2
2017-Apr-10 13:57N 01°17' E 103°45'0 0.4
2017-Apr-10 13:30N 01°17' E 103°45'0 0.1
2017-Apr-10 13:00N 01°17' E 103°45'0 0.0
2017-Apr-10 12:30N 01°17' E 103°45'0 0.1
2017-Apr-10 12:00N 01°17' E 103°45'0 0.1
2017-Apr-10 11:30N 01°17' E 103°45'0 0.1
2017-Apr-10 11:00N 01°17' E 103°45'0 0.0
2017-Apr-10 10:31N 01°17' E 103°45'1 1.5
2017-Apr-10 10:01N 01°17' E 103°45'5 9.1
2017-Apr-10 09:30N 01°13' E 103°47'611.3
2017-Apr-10 09:01N 01°13' E 103°53'4 7.0
2017-Apr-10 08:30N 01°15' E 103°56'611.5
2017-Apr-10 08:01N 01°16' E 104°02'  
2017-Apr-05 09:54N 01°15' E 104°08'717.9
2017-Apr-05 09:30N 01°14' E 104°01'816.0
2017-Apr-05 09:00N 01°12' E 103°53'4 8.3
2017-Apr-05 08:31N 01°12' E 103°49'4 8.6
2017-Apr-05 08:00N 01°15' E 103°46'2 4.1
2017-Apr-05 07:31N 01°17' E 103°46'0 0.3
2017-Apr-05 06:59N 01°17' E 103°46'0 0.2
2017-Apr-05 06:29N 01°17' E 103°46'0 0.0
2017-Apr-05 06:00N 01°17' E 103°46'0 0.1
2017-Apr-05 05:27N 01°17' E 103°46'0 0.2
2017-Apr-05 04:57N 01°17' E 103°46'0 0.3
2017-Apr-05 04:30N 01°17' E 103°46'0 0.3
2017-Apr-05 04:00N 01°17' E 103°46'0 0.0
2017-Apr-05 03:30N 01°17' E 103°46'0 0.1
2017-Apr-05 02:57N 01°17' E 103°46'0 0.2
2017-Apr-05 02:30N 01°17' E 103°46'0 0.1
2017-Apr-05 02:00N 01°17' E 103°46'0 0.2
2017-Apr-05 01:30N 01°17' E 103°46'0 0.1
2017-Apr-05 01:00N 01°17' E 103°46'0 0.2
2017-Apr-05 00:30N 01°17' E 103°46'0 0.1
2017-Apr-05 00:00N 01°17' E 103°46'0 0.1
2017-Apr-04 23:30N 01°17' E 103°46'0 0.5
2017-Apr-04 23:00N 01°17' E 103°46'0 0.4
2017-Apr-04 22:27N 01°17' E 103°46'0 0.1
2017-Apr-04 21:57N 01°17' E 103°46'0 0.0
2017-Apr-04 21:30N 01°17' E 103°46'0 0.0
2017-Apr-04 20:57N 01°17' E 103°46'0 0.0
2017-Apr-04 20:30N 01°17' E 103°46'0 0.0
2017-Apr-04 19:54N 01°17' E 103°46'0 0.0
2017-Apr-04 19:30N 01°17' E 103°46'0 0.2
2017-Apr-04 19:00N 01°17' E 103°46'0 0.1
2017-Apr-04 18:18N 01°17' E 103°46'0 0.1
2017-Apr-04 17:57N 01°17' E 103°46'0 0.0
2017-Apr-04 17:30N 01°17' E 103°46'0 0.5
2017-Apr-04 17:00N 01°17' E 103°46'1 2.2
2017-Apr-04 16:30N 01°17' E 103°45'2 4.2
2017-Apr-04 16:00N 01°15' E 103°46'611.7
2017-Apr-04 15:30N 01°13' E 103°40'4 8.9
2017-Apr-04 15:00N 01°13' E 103°36'3 6.2
2017-Apr-04 14:30N 01°11' E 103°33'1110.9
2017-Apr-04 13:29N 01°14' E 103°22'714.6
2017-Apr-04 13:00N 01°18' E 103°17'3514.9
2017-Apr-04 10:41N 01°38' E 102°48'1515.1
2017-Apr-04 09:41N 01°44' E 102°35'415.2
2017-Apr-04 09:26N 01°46' E 102°32'615.0
2017-Apr-04 09:00N 01°48' E 102°26'1515.0
2017-Apr-04 08:02N 01°55' E 102°12'014.8
2017-Apr-04 08:00N 01°55' E 102°12'  

Dump ship's entire track history